Airport Name : Brisbane Intl

Other Name : Brisbane Intl

ICAO : YBBN

IATA : BNE

FAA :

Latitude : -27.384167

Longitude : 153.1175

Country : Australia

Local Date and Time : 21 Jul 2024 01:34

 

TAF (Terminal Aerodrome Forecast)

TAF YBBN 201403Z 2015/2118 25014KT CAVOK FM202300 24020G30KT CAVOK FM210500 24013KT CAVOK FM210700 24008KT CAVOK

 

METAR (METeorological Aerodrome Report)

YBBN 201531Z 25015G25KT CAVOK 14/02 Q1016

YBBN 201508Z 25015G27KT CAVOK 14/02 Q1016

YBBN 201500Z 25017KT CAVOK 14/02 Q1016

YBBN 201430Z 26016KT CAVOK 15/02 Q1016

YBBN 201400Z 25014KT CAVOK 15/02 Q1016

YBBN 201333Z 25015G26KT CAVOK 16/03 Q1016

YBBN 201300Z 25015KT CAVOK 16/03 Q1016

YBBN 201230Z 26015KT CAVOK 16/03 Q1016

YBBN 201200Z 27015KT CAVOK 17/03 Q1016